Time,TemperatureF,DewpointF,PressureIn,WindDirection,WindDirectionDegrees,WindSpeedMPH,WindSpeedGustMPH,Humidity,HourlyPrecipIn,Conditions,Clouds,dailyrainin,SolarRadiationWatts/m^2,SoftwareType,DateUTC
2013-02-17 00:21:00,43.0,17.0,-100.00,ESE,110,0.0,7.0,34,0.00,,,0.00,0.000000,,2013-02-17 08:21:00,
2013-02-17 00:31:00,43.0,17.0,-100.00,ESE,110,0.0,7.0,34,0.00,,,0.00,0.000000,,2013-02-17 08:31:00,
2013-02-17 00:42:00,43.0,17.0,-100.00,ESE,110,0.0,7.0,34,0.00,,,0.00,0.000000,,2013-02-17 08:42:00,
2013-02-17 00:52:00,43.0,17.0,-100.00,ESE,110,0.0,7.0,34,0.00,,,0.00,0.000000,,2013-02-17 08:52:00,
2013-02-17 01:21:00,40.0,15.0,-100.00,SE,128,2.0,5.0,36,0.00,,,0.00,0.000000,,2013-02-17 09:21:00,
2013-02-17 01:31:00,40.0,15.0,-100.00,SE,128,2.0,5.0,36,0.00,,,0.00,0.000000,,2013-02-17 09:31:00,
2013-02-17 01:41:00,40.0,15.0,-100.00,SE,128,2.0,5.0,36,0.00,,,0.00,0.000000,,2013-02-17 09:41:00,
2013-02-17 01:51:00,40.0,15.0,-100.00,SE,128,2.0,5.0,36,0.00,,,0.00,0.000000,,2013-02-17 09:51:00,
2013-02-17 02:21:00,39.0,17.0,-100.00,ESE,122,0.0,5.0,41,0.00,,,0.00,0.000000,,2013-02-17 10:21:00,
2013-02-17 02:31:00,39.0,17.0,-100.00,ESE,122,0.0,5.0,41,0.00,,,0.00,0.000000,,2013-02-17 10:31:00,
2013-02-17 02:41:00,39.0,17.0,-100.00,ESE,122,0.0,5.0,41,0.00,,,0.00,0.000000,,2013-02-17 10:41:00,
2013-02-17 02:51:00,39.0,17.0,-100.00,ESE,122,0.0,5.0,41,0.00,,,0.00,0.000000,,2013-02-17 10:51:00,
2013-02-17 03:32:00,38.0,19.0,-100.00,ESE,113,0.0,5.0,46,0.00,,,0.00,0.000000,,2013-02-17 11:32:00,
2013-02-17 03:41:00,38.0,19.0,-100.00,ESE,113,0.0,5.0,46,0.00,,,0.00,0.000000,,2013-02-17 11:41:00,
2013-02-17 03:52:00,38.0,19.0,-100.00,ESE,113,0.0,5.0,46,0.00,,,0.00,0.000000,,2013-02-17 11:52:00,
2013-02-17 04:22:00,37.0,20.0,-100.00,ESE,115,1.0,6.0,49,0.00,,,0.00,0.000000,,2013-02-17 12:22:00,
2013-02-17 04:32:00,37.0,20.0,-100.00,ESE,115,1.0,6.0,49,0.00,,,0.00,0.000000,,2013-02-17 12:32:00,
2013-02-17 04:42:00,37.0,20.0,-100.00,ESE,115,1.0,6.0,49,0.00,,,0.00,0.000000,,2013-02-17 12:42:00,
2013-02-17 04:52:00,37.0,20.0,-100.00,ESE,115,1.0,6.0,49,0.00,,,0.00,0.000000,,2013-02-17 12:52:00,
2013-02-17 05:21:00,38.0,22.0,-100.00,SE,126,2.0,6.0,53,0.00,,,0.00,0.000000,,2013-02-17 13:21:00,
2013-02-17 05:32:00,38.0,22.0,-100.00,SE,126,2.0,6.0,53,0.00,,,0.00,0.000000,,2013-02-17 13:32:00,
2013-02-17 05:41:00,38.0,22.0,-100.00,SE,126,2.0,6.0,53,0.00,,,0.00,0.000000,,2013-02-17 13:41:00,
2013-02-17 05:51:00,38.0,22.0,-100.00,SE,126,2.0,6.0,53,0.00,,,0.00,0.000000,,2013-02-17 13:51:00,
2013-02-17 06:21:00,37.0,21.0,-100.00,ESE,121,3.0,6.0,53,0.00,,,0.00,0.000000,,2013-02-17 14:21:00,
2013-02-17 06:32:00,37.0,21.0,-100.00,ESE,121,3.0,6.0,53,0.00,,,0.00,0.000000,,2013-02-17 14:32:00,
2013-02-17 06:42:00,37.0,21.0,-100.00,ESE,121,3.0,6.0,53,0.00,,,0.00,0.000000,,2013-02-17 14:42:00,
2013-02-17 06:52:00,37.0,21.0,-100.00,ESE,121,3.0,6.0,53,0.00,,,0.00,0.000000,,2013-02-17 14:52:00,
2013-02-17 07:21:00,38.0,23.0,-100.00,ESE,110,0.0,7.0,55,0.00,,,0.00,2.000000,,2013-02-17 15:21:00,
2013-02-17 07:31:00,38.0,23.0,-100.00,ESE,110,0.0,7.0,55,0.00,,,0.00,2.000000,,2013-02-17 15:31:00,
2013-02-17 07:41:00,38.0,23.0,-100.00,ESE,110,0.0,7.0,55,0.00,,,0.00,2.000000,,2013-02-17 15:41:00,
2013-02-17 07:52:00,38.0,23.0,-100.00,ESE,110,0.0,7.0,55,0.00,,,0.00,2.000000,,2013-02-17 15:52:00,
2013-02-17 08:21:00,41.0,25.0,-100.00,ESE,122,2.0,7.0,53,0.00,,,-99.99,93.000000,,2013-02-17 16:21:00,
2013-02-17 09:21:00,52.0,30.0,-100.00,SE,146,0.0,6.0,42,0.00,,,0.00,369.000000,,2013-02-17 17:21:00,
2013-02-17 10:21:00,59.0,33.0,-100.00,WSW,249,1.0,4.0,37,-99.99,,,0.00,541.000000,,2013-02-17 18:21:00,
2013-02-17 11:21:00,59.0,35.0,-100.00,WNW,288,3.0,5.0,41,0.00,,,0.00,727.000000,,2013-02-17 19:21:00,
2013-02-17 11:41:00,59.0,35.0,-100.00,WNW,288,3.0,5.0,41,0.00,,,0.00,727.000000,,2013-02-17 19:41:00,
2013-02-17 11:51:00,59.0,35.0,-100.00,WNW,288,3.0,5.0,41,0.00,,,0.00,727.000000,,2013-02-17 19:51:00,
2013-02-17 12:21:00,59.0,35.0,-100.00,West,259,5.0,8.0,41,0.00,,,0.00,835.000000,,2013-02-17 20:21:00,
2013-02-17 12:32:00,59.0,35.0,-100.00,West,259,5.0,8.0,41,0.00,,,0.00,835.000000,,2013-02-17 20:32:00,
2013-02-17 12:42:00,59.0,35.0,-100.00,West,259,5.0,8.0,41,0.00,,,0.00,835.000000,,2013-02-17 20:42:00,
2013-02-17 12:52:00,59.0,35.0,-100.00,West,259,5.0,8.0,41,0.00,,,0.00,835.000000,,2013-02-17 20:52:00,
2013-02-17 13:21:00,60.0,38.0,-100.00,WNW,293,5.0,10.0,44,0.00,,,0.00,853.000000,,2013-02-17 21:21:00,
2013-02-17 13:31:00,60.0,38.0,-100.00,WNW,293,5.0,10.0,44,0.00,,,0.00,853.000000,,2013-02-17 21:31:00,
2013-02-17 13:41:00,60.0,38.0,-100.00,WNW,293,5.0,10.0,44,0.00,,,0.00,853.000000,,2013-02-17 21:41:00,
2013-02-17 13:52:00,60.0,38.0,-100.00,WNW,293,5.0,10.0,44,0.00,,,0.00,853.000000,,2013-02-17 21:52:00,
2013-02-17 14:21:00,61.0,38.0,-100.00,ESE,107,3.0,10.0,43,0.00,,,0.00,793.000000,,2013-02-17 22:21:00,
2013-02-17 14:32:00,61.0,38.0,-100.00,ESE,107,3.0,10.0,43,0.00,,,0.00,793.000000,,2013-02-17 22:32:00,
2013-02-17 14:41:00,61.0,38.0,-100.00,ESE,107,3.0,10.0,43,0.00,,,0.00,793.000000,,2013-02-17 22:41:00,
2013-02-17 14:52:00,61.0,38.0,-100.00,ESE,107,3.0,10.0,43,0.00,,,0.00,793.000000,,2013-02-17 22:52:00,
2013-02-17 15:21:00,61.0,38.0,-100.00,WNW,295,3.0,11.0,43,0.00,,,0.00,659.000000,,2013-02-17 23:21:00,
2013-02-17 15:31:00,61.0,38.0,-100.00,WNW,295,3.0,11.0,43,0.00,,,0.00,659.000000,,2013-02-17 23:31:00,
2013-02-17 15:41:00,61.0,38.0,-100.00,WNW,295,3.0,11.0,43,0.00,,,0.00,659.000000,,2013-02-17 23:41:00,
2013-02-17 15:52:00,61.0,38.0,-100.00,WNW,295,3.0,11.0,43,0.00,,,0.00,659.000000,,2013-02-17 23:52:00,
2013-02-17 16:22:00,58.0,37.0,-100.00,NW,310,3.0,10.0,46,0.00,,,0.00,468.000000,,2013-02-18 00:22:00,
2013-02-17 16:31:00,58.0,37.0,-100.00,NW,310,3.0,10.0,46,0.00,,,0.00,468.000000,,2013-02-18 00:31:00,
2013-02-17 16:41:00,58.0,37.0,-100.00,NW,310,3.0,10.0,46,0.00,,,0.00,468.000000,,2013-02-18 00:41:00,
2013-02-17 16:52:00,58.0,37.0,-100.00,NW,310,3.0,10.0,46,0.00,,,0.00,468.000000,,2013-02-18 00:52:00,
2013-02-17 17:21:00,56.0,39.0,-100.00,West,275,2.0,8.0,53,0.00,,,0.00,240.000000,,2013-02-18 01:21:00,
2013-02-17 17:31:00,56.0,39.0,-100.00,West,275,2.0,8.0,53,0.00,,,0.00,240.000000,,2013-02-18 01:31:00,
2013-02-17 17:41:00,56.0,39.0,-100.00,West,275,2.0,8.0,53,0.00,,,0.00,240.000000,,2013-02-18 01:41:00,
2013-02-17 17:51:00,56.0,39.0,-100.00,West,275,2.0,8.0,53,0.00,,,0.00,240.000000,,2013-02-18 01:51:00,
2013-02-17 18:21:00,47.0,38.0,-100.00,ESE,104,0.0,7.0,70,0.00,,,0.00,35.000000,,2013-02-18 02:21:00,
2013-02-17 18:32:00,47.0,38.0,-100.00,ESE,104,0.0,7.0,70,0.00,,,0.00,35.000000,,2013-02-18 02:32:00,
2013-02-17 18:41:00,47.0,38.0,-100.00,ESE,104,0.0,7.0,70,0.00,,,0.00,35.000000,,2013-02-18 02:41:00,
2013-02-17 18:52:00,47.0,38.0,-100.00,ESE,104,0.0,7.0,70,0.00,,,0.00,35.000000,,2013-02-18 02:52:00,
2013-02-17 19:21:00,42.0,37.0,-100.00,ESE,119,0.0,7.0,82,0.00,,,0.00,0.000000,,2013-02-18 03:21:00,
2013-02-17 19:31:00,42.0,37.0,-100.00,ESE,119,0.0,7.0,82,0.00,,,0.00,0.000000,,2013-02-18 03:31:00,
2013-02-17 19:42:00,42.0,37.0,-100.00,ESE,119,0.0,7.0,82,0.00,,,0.00,0.000000,,2013-02-18 03:42:00,
2013-02-17 19:51:00,42.0,37.0,-100.00,ESE,119,0.0,7.0,82,0.00,,,0.00,0.000000,,2013-02-18 03:51:00,
2013-02-17 20:21:00,39.0,32.0,-100.00,ESE,117,1.0,5.0,75,0.00,,,0.00,0.000000,,2013-02-18 04:21:00,
2013-02-17 20:32:00,39.0,32.0,-100.00,ESE,117,1.0,5.0,75,0.00,,,0.00,0.000000,,2013-02-18 04:32:00,
2013-02-17 20:41:00,39.0,32.0,-100.00,ESE,117,1.0,5.0,75,0.00,,,0.00,0.000000,,2013-02-18 04:41:00,
2013-02-17 20:51:00,39.0,32.0,-100.00,ESE,117,1.0,5.0,75,0.00,,,0.00,0.000000,,2013-02-18 04:51:00,
2013-02-17 21:21:00,39.0,30.0,-100.00,SE,126,3.0,6.0,69,0.00,,,0.00,0.000000,,2013-02-18 05:21:00,
2013-02-17 21:31:00,39.0,30.0,-100.00,SE,126,3.0,6.0,69,0.00,,,0.00,0.000000,,2013-02-18 05:31:00,
2013-02-17 21:41:00,39.0,30.0,-100.00,SE,126,3.0,6.0,69,0.00,,,0.00,0.000000,,2013-02-18 05:41:00,
2013-02-17 21:51:00,39.0,30.0,-100.00,SE,126,3.0,6.0,69,0.00,,,0.00,0.000000,,2013-02-18 05:51:00,
2013-02-17 22:21:00,40.0,30.0,-100.00,SE,130,2.0,7.0,66,0.00,,,0.00,0.000000,,2013-02-18 06:21:00,
2013-02-17 22:31:00,40.0,30.0,-100.00,SE,130,2.0,7.0,66,0.00,,,0.00,0.000000,,2013-02-18 06:31:00,
2013-02-17 22:41:00,40.0,30.0,-100.00,SE,130,2.0,7.0,66,0.00,,,0.00,0.000000,,2013-02-18 06:41:00,
2013-02-17 22:51:00,40.0,30.0,-100.00,SE,130,2.0,7.0,66,0.00,,,0.00,0.000000,,2013-02-18 06:51:00,
2013-02-17 23:21:00,40.0,31.0,-100.00,ESE,122,1.0,6.0,71,0.00,,,0.00,0.000000,,2013-02-18 07:21:00,
2013-02-17 23:31:00,40.0,31.0,-100.00,ESE,122,1.0,6.0,71,0.00,,,0.00,0.000000,,2013-02-18 07:31:00,
2013-02-17 23:42:00,40.0,31.0,-100.00,ESE,122,1.0,6.0,71,0.00,,,0.00,0.000000,,2013-02-18 07:42:00,
2013-02-17 23:51:00,40.0,31.0,-100.00,ESE,122,1.0,6.0,71,0.00,,,0.00,0.000000,,2013-02-18 07:51:00,